• Join FlightAware (Why Join?)
  • Login
  • US Flag 
06:56AM EDT


 

Airport Tracker/Info


-or-


 

Live Flight TrackerFlight Track Log ✈ SWA3587 ✈ 09-Aug-2013 ✈ KPHX - KDTW

Flight Track Log - Related Links

Times and Time Zones

All times are in EDT time to prevent confusion due to time zone crossing. See the SWA3587 flight status page for this flight to view local times or setup timezone preferences in your user account.

Time Position Orientation Groundspeed Altitude Reporting Facility
EDT Latitude Longitude Course Direction KTS MPH feet Rate Location/Type
09:11PM 33.4333 -112.0333 248° West 188 216 1,600  Level Phoenix TRACON
09:13PM 33.4000 -112.1333 248° West 237 273 4,800 2,580 Climbing Phoenix TRACON
09:14PM 33.3667 -112.1667 220° Southwest 237 273 7,900 2,940 Climbing Phoenix TRACON
09:15PM 33.3167 -112.1167 140° Southeast 290 334 10,100 2,280 Climbing Phoenix TRACON
09:16PM 33.3472 -112.0078 71° East 332 382 12,800 2,700 Climbing Albuquerque Center
09:17PM 33.3747 -111.8950 74° East 353 406 16,200 3,180 Climbing Albuquerque Center
09:18PM 33.4106 -111.7503 73° East 380 437 19,400 2,820 Climbing Albuquerque Center
09:19PM 33.4428 -111.6225 73° East 400 460 22,100 2,700 Climbing Albuquerque Center
09:20PM 33.4756 -111.4903 73° East 414 476 25,000 2,340 Climbing Albuquerque Center
09:21PM 33.5053 -111.3558 75° East 420 483 27,000 1,680 Climbing Albuquerque Center
09:22PM 33.5219 -111.2100 82° East 442 509 28,500 1,440 Climbing Albuquerque Center
09:23PM 33.5403 -111.0569 82° East 462 532 30,000 1,380 Climbing Albuquerque Center
09:24PM 33.5592 -110.8961 82° East 483 556 31,400 1,680 Climbing Albuquerque Center
09:25PM 33.6200 -110.7081 69° East 497 572 33,500 1,740 Climbing Albuquerque Center
09:26PM 33.6719 -110.5511 68° East 504 580 35,000 1,140 Climbing Albuquerque Center
09:27PM 33.7208 -110.3914 70° East 509 586 35,900 900 Climbing Albuquerque Center
09:28PM 33.7700 -110.2256 70° East 515 593 36,900 1,380 Climbing Albuquerque Center
09:29PM 33.8242 -110.0600 68° East 525 604 38,800 1,020 Climbing Albuquerque Center
09:30PM 33.8758 -109.9014 69° East 516 594 39,000 60 Climbing Albuquerque Center
09:31PM 33.9244 -109.7436 70° East 506 582 39,000  Level Albuquerque Center
09:32PM 33.9744 -109.5861 69° East 503 579 39,000  Level Albuquerque Center
09:33PM 34.0247 -109.4275 69° East 505 581 39,000  Level Albuquerque Center
09:34PM 34.0742 -109.2692 69° East 504 580 39,000  Level Albuquerque Center
09:35PM 34.1308 -109.0864 69° East 504 580 39,000  Level Albuquerque Center
09:36PM 34.1769 -108.9356 70° East 504 580 39,000  Level Albuquerque Center
09:37PM 34.2303 -108.7617 70° East 503 579 39,000  Level Albuquerque Center
09:38PM 34.2792 -108.6019 70° East 504 580 39,000  Level Albuquerque Center
09:39PM 34.3264 -108.4461 70° East 502 578 39,000  Level Albuquerque Center
09:40PM 34.3731 -108.2869 70° East 501 577 39,000  Level Albuquerque Center
09:41PM 34.4172 -108.1283 71° East 501 577 39,000  Level Albuquerque Center
09:42PM 34.4619 -107.9689 71° East 505 581 39,000  Level Albuquerque Center
09:43PM 34.5231 -107.8161 64° Northeast 509 586 39,000  Level Albuquerque Center
09:44PM 34.5978 -107.6317 64° Northeast 508 585 39,000  Level Albuquerque Center
09:45PM 34.6631 -107.4769 63° Northeast 508 585 39,000  Level Albuquerque Center
09:46PM 34.7244 -107.3236 64° Northeast 507 583 39,000  Level Albuquerque Center
09:47PM 34.7853 -107.1697 64° Northeast 505 581 39,000  Level Albuquerque Center
09:48PM 34.8503 -107.0072 64° Northeast 499 574 39,000  Level Albuquerque Center
09:49PM 34.9128 -106.8508 64° Northeast 504 580 39,000  Level Albuquerque Center
09:50PM 34.9744 -106.6964 64° Northeast 506 582 39,000  Level Albuquerque Center
09:51PM 35.0356 -106.5417 64° Northeast 507 583 39,000  Level Albuquerque Center
09:53PM 35.0953 -106.3811 66° East 516 594 39,000  Level Albuquerque Center
09:54PM 35.1561 -106.2267 64° Northeast 512 589 39,000  Level Albuquerque Center
09:55PM 35.2153 -106.0750 64° Northeast 502 578 39,000  Level Albuquerque Center
09:56PM 35.2750 -105.9206 65° Northeast 505 581 39,000  Level Albuquerque Center
09:57PM 35.3347 -105.7667 65° Northeast 506 582 39,000  Level Albuquerque Center
09:58PM 35.4042 -105.5828 65° Northeast 501 577 39,000  Level Albuquerque Center
09:59PM 35.4631 -105.4322 64° Northeast 501 577 39,000  Level Albuquerque Center
10:00PM 35.5233 -105.2747 65° Northeast 503 579 39,000  Level Albuquerque Center
10:01PM 35.5833 -105.1167 65° Northeast 504 580 39,000  Level Albuquerque Center
10:02PM 35.6428 -104.9575 65° Northeast 506 582 39,000  Level Albuquerque Center
10:03PM 35.7014 -104.8000 65° Northeast 503 579 39,000  Level Albuquerque Center
10:04PM 35.7619 -104.6383 65° Northeast 507 583 39,000  Level Albuquerque Center
10:05PM 35.8219 -104.4758 65° Northeast 512 589 39,000  Level Albuquerque Center
10:06PM 35.8817 -104.3139 65° Northeast 513 590 39,000  Level Albuquerque Center
10:07PM 35.9411 -104.1531 65° Northeast 510 587 39,000  Level Albuquerque Center
10:08PM 35.9986 -103.9919 66° East 508 585 39,000  Level Albuquerque Center
10:09PM 36.0575 -103.8311 66° East 508 585 39,100  Climbing Albuquerque Center
10:10PM 36.1153 -103.6706 66° East 506 582 39,000 -60 Descending Albuquerque Center
10:11PM 36.1728 -103.5117 66° East 503 579 39,000  Level Albuquerque Center
10:12PM 36.2300 -103.3528 66° East 500 575 39,000  Level Albuquerque Center
10:13PM 36.2861 -103.1933 66° East 501 577 39,000  Level Albuquerque Center
10:14PM 36.3422 -103.0328 67° East 502 578 39,000  Level Albuquerque Center
10:15PM 36.4056 -102.8533 66° East 500 575 39,000  Level Albuquerque Center
10:16PM 36.4606 -102.6936 67° East 501 577 39,000  Level Albuquerque Center
10:17PM 36.5164 -102.5350 66° East 501 577 39,000  Level Albuquerque Center
10:18PM 36.5728 -102.3742 66° East 505 581 39,000  Level Albuquerque Center
10:19PM 36.6272 -102.2153 67° East 501 577 39,000  Level Albuquerque Center
10:20PM 36.6808 -102.0567 67° East 505 581 39,000  Level Albuquerque Center
10:21PM 36.7419 -101.8781 67° East 504 580 39,000  Level Albuquerque Center
10:22PM 36.7942 -101.7231 67° East 506 582 39,000  Level Albuquerque Center
10:23PM 36.8464 -101.5678 67° East 508 585 39,000  Level Albuquerque Center
10:24PM 36.9175 -101.3933 63° Northeast 507 583 39,000  Level Kansas City Center
10:25PM 36.9800 -101.2458 62° Northeast 504 580 39,000  Level Kansas City Center
10:26PM 37.0531 -101.0733 62° Northeast 505 581 39,000  Level Kansas City Center
10:27PM 37.1139 -100.9256 63° Northeast 503 579 39,000  Level Kansas City Center
10:28PM 37.1742 -100.7764 63° Northeast 504 580 39,000  Level Kansas City Center
10:29PM 37.2456 -100.6042 62° Northeast 504 580 39,000  Level Kansas City Center
10:30PM 37.3072 -100.4550 63° Northeast 506 582 39,000  Level Kansas City Center
10:31PM 37.3781 -100.2808 63° Northeast 505 581 39,000  Level Kansas City Center
10:32PM 37.4389 -100.1306 63° Northeast 506 582 39,000  Level Kansas City Center
10:33PM 37.5106 -99.9547 63° Northeast 507 583 39,000  Level Kansas City Center
10:34PM 37.5700 -99.8039 64° Northeast 505 581 39,000  Level Kansas City Center
10:35PM 37.6311 -99.6519 63° Northeast 508 585 39,000  Level Kansas City Center
10:36PM 37.7008 -99.4753 63° Northeast 506 582 39,000  Level Kansas City Center
10:37PM 37.7553 -99.3397 63° Northeast 507 583 39,000  Level Kansas City Center
10:38PM 37.8300 -99.1486 64° Northeast 506 582 39,000  Level Kansas City Center
10:39PM 37.8922 -98.9875 64° Northeast 507 583 39,000  Level Kansas City Center
10:40PM 37.9558 -98.8286 63° Northeast 506 582 39,000  Level Kansas City Center
10:41PM 38.0178 -98.6661 64° Northeast 509 586 39,000  Level Kansas City Center
10:42PM 38.0808 -98.5053 63° Northeast 508 585 39,000  Level Kansas City Center
10:44PM 38.1422 -98.3428 64° Northeast 508 585 39,000  Level Kansas City Center
10:45PM 38.2056 -98.1803 64° Northeast 508 585 39,000  Level Kansas City Center
10:46PM 38.2675 -98.0167 64° Northeast 507 583 39,000  Level Kansas City Center
10:47PM 38.3289 -97.8525 64° Northeast 508 585 39,000  Level Kansas City Center
10:48PM 38.3894 -97.6886 65° Northeast 509 586 39,000  Level Kansas City Center
10:49PM 38.4503 -97.5244 65° Northeast 509 586 39,000  Level Kansas City Center
10:50PM 38.5111 -97.3597 65° Northeast 515 593 39,000  Level Kansas City Center
10:51PM 38.5708 -97.1953 65° Northeast 510 587 39,000  Level Kansas City Center
10:52PM 38.6311 -97.0314 65° Northeast 510 587 39,000  Level Kansas City Center
10:53PM 38.6908 -96.8664 65° Northeast 511 588 39,000  Level Kansas City Center
10:54PM 38.7669 -96.6714 63° Northeast 513 590 39,000  Level Kansas City Center
10:55PM 38.8244 -96.5061 66° East 508 585 39,000  Level Kansas City Center
10:56PM 38.8861 -96.3358 65° Northeast 508 585 39,000  Level Kansas City Center
10:57PM 38.9406 -96.1775 66° East 509 586 39,000  Level Kansas City Center
10:58PM 38.9950 -96.0169 66° East 509 586 39,000  Level Kansas City Center
10:59PM 39.0603 -95.8317 66° East 509 586 39,000  Level Kansas City Center
11:00PM 39.1164 -95.6736 65° Northeast 508 585 39,000  Level Kansas City Center
11:01PM 39.1725 -95.5122 66° East 512 589 39,000  Level Kansas City Center
11:02PM 39.2361 -95.3244 66° East 516 594 39,000  Level Kansas City Center
11:03PM 39.2981 -95.1447 66° East 511 588 39,000  Level Kansas City Center
11:04PM 39.3519 -94.9894 66° East 513 590 39,000  Level Kansas City Center
11:05PM 39.4072 -94.8308 66° East 507 583 39,000  Level Kansas City Center
11:06PM 39.4711 -94.6403 66° East 518 596 39,000  Level Kansas City Center
11:07PM 39.5253 -94.4783 67° East 513 590 39,000  Level Kansas City Center
11:08PM 39.5878 -94.2886 67° East 513 590 39,000  Level Kansas City Center
11:09PM 39.6414 -94.1264 67° East 513 590 39,000  Level Kansas City Center
11:10PM 39.6950 -93.9644 67° East 511 588 39,000  Level Kansas City Center
11:11PM 39.7567 -93.7742 67° East 510 587 39,000  Level Kansas City Center
11:12PM 39.8072 -93.6153 67° East 516 594 39,000  Level Kansas City Center
11:13PM 39.8636 -93.4458 67° East 515 593 39,000  Level Kansas City Center
11:14PM 39.9178 -93.2767 67° East 513 590 39,000  Level Kansas City Center
11:15PM 39.9722 -93.1056 67° East 515 593 39,000  Level Kansas City Center
11:16PM 40.0361 -92.9019 68° East 514 592 39,000  Level Kansas City Center
11:17PM 40.0892 -92.7319 68° East 512 589 39,000  Level Kansas City Center
11:19PM 40.1800 -92.3644 72° East 506 582 39,000  Level Kansas City Center
11:20PM 40.2125 -92.2111 74° East 513 590 39,000  Level Kansas City Center
11:21PM 40.2558 -91.9983 75° East 512 589 39,000  Level Kansas City Center
11:22PM 40.2911 -91.8208 75° East 510 587 39,000  Level Kansas City Center
11:23PM 40.3269 -91.6422 75° East 512 589 39,000  Level Kansas City Center
11:24PM 40.3625 -91.4625 75° East 513 590 39,000  Level Kansas City Center
11:25PM 40.3972 -91.2836 76° East 512 589 39,000  Level Kansas City Center
11:26PM 40.4375 -91.0797 75° East 508 585 39,000  Level Kansas City Center
11:27PM 40.4833 -90.9047 71° East 506 582 39,000  Level Kansas City Center
11:28PM 40.5386 -90.7331 67° East 507 583 39,000  Level Kansas City Center
11:29PM 40.5908 -90.5606 68° East 507 583 39,000  Level Kansas City Center
11:30PM 40.6439 -90.3861 68° East 511 588 39,000  Level Kansas City Center
11:31PM 40.6956 -90.2122 69° East 510 587 39,000  Level Kansas City Center
11:32PM 40.7481 -90.0375 68° East 515 593 39,000  Level Kansas City Center
11:33PM 40.8053 -89.8533 68° East 519 597 39,000  Level Kansas City Center
11:34PM 40.8567 -89.6675 70° East 526 605 39,000  Level Kansas City Center
11:36PM 40.9167 -89.4567 69° East 514 592 39,000  Level Chicago Center
11:37PM 40.9681 -89.2792 69° East 515 593 39,000  Level Chicago Center
11:38PM 41.0225 -89.0869 69° East 510 587 39,000  Level Chicago Center
11:39PM 41.0719 -88.9100 70° East 516 594 39,000  Level Chicago Center
11:40PM 41.1214 -88.7319 70° East 523 602 39,000  Level Chicago Center
11:41PM 41.1800 -88.5244 69° East 517 595 39,000  Level Chicago Center
11:42PM 41.2294 -88.3461 70° East 510 587 39,000 -420 Level Chicago Center
11:43PM 41.2775 -88.1708 70° East 505 581 38,200 -840 Descending Chicago Center
11:44PM 41.3222 -87.9944 71° East 517 595 37,300 -900 Descending Chicago Center
11:45PM 41.3731 -87.8186 69° East 527 606 36,400 -900 Descending Chicago Center
11:46PM 41.4225 -87.6419 69° East 519 597 35,500 -1,140 Descending Chicago Center
11:47PM 41.4797 -87.4283 70° East 519 597 34,100 -1,440 Descending Chicago Center
11:48PM 41.5264 -87.2508 71° East 512 589 32,600 -1,440 Descending Chicago Center
11:49PM 41.5711 -87.0783 71° East 499 574 31,200 -840 Descending Chicago Center
11:50PM 41.6172 -86.9058 70° East 497 572 31,000 -120 Descending Chicago Center
11:51PM 41.6622 -86.7328 71° East 497 572 31,000  Level Chicago Center
11:52PM 41.7047 -86.5731 70° East 495 570 31,000  Level Chicago Center
11:53PM 41.7486 -86.3969 71° East 497 572 31,000 -60 Level Chicago Center
11:54PM 41.7958 -86.1831 73° East 499 574 30,900 -1,020 Descending Chicago Center
11:55PM 41.8283 -86.0017 76° East 500 575 29,000 -1,920 Descending Chicago Center
11:56PM 41.8642 -85.8158 75° East 509 586 27,000 -1,800 Descending Chicago Center
11:57PM 41.8986 -85.6328 76° East 505 581 25,400 -1,560 Descending Chicago Center
11:58PM 41.9311 -85.4572 76° East 488 562 23,900 -1,500 Descending Chicago Center
11:59PM 41.9631 -85.2836 76° East 477 549 22,400 -1,380 Descending Chicago Center
12:00AM 41.9939 -85.1153 76° East 462 532 21,200 -1,200 Descending Chicago Center
12:01AM 42.0203 -84.9694 76° East 467 537 20,100 -1,440 Descending Chicago Center
12:02AM 42.0544 -84.7753 77° East 450 518 18,300 -1,680 Descending Chicago Center
12:03AM 42.0831 -84.6167 76° East 442 509 16,800 -1,680 Descending Chicago Center
12:04AM 42.1100 -84.4608 77° East 434 499 15,000 -1,920 Descending Chicago Center
12:05AM 42.1297 -84.3436 77° East 416 479 13,500 -1,980 Descending Cleveland Center
12:06AM 42.1553 -84.1939 77° East 400 460 11,600 -1,320 Descending Cleveland Center
12:07AM 42.1844 -84.0636 73° East 347 399 10,900 -1,020 Descending Cleveland Center
12:08AM 42.2108 -83.9503 73° East 320 368 9,600 -1,440 Descending Cleveland Center
12:09AM 42.2369 -83.8367 73° East 310 357 8,100 -1,500 Descending Cleveland Center
12:10AM 42.2589 -83.7228 75° East 305 351 6,600 -1,380 Descending Cleveland Center
12:11AM 42.2825 -83.6172 73° East 289 333 5,400 -1,320 Descending Cleveland Center
12:12AM 42.3061 -83.5172 72° East 277 319 4,000 -720 Descending Cleveland Center
12:13AM 42.3228 -83.4281 76° East 233 268 4,000  Level Cleveland Center
12:14AM 42.3417 -83.3419 73° East 237 273 4,000 -60 Level Cleveland Center
12:15AM 42.3456 -83.2633 86° East 197 227 3,900 -480 Descending Cleveland Center
12:16AM 42.2994 -83.2725 188° South 148 170 3,000 -1,080 Descending Cleveland Center
12:17AM 42.2653 -83.3050 215° Southwest 146 168 1,600 -1,080 Descending Cleveland Center
12:18AM 42.2317 -83.3258 205° Southwest 136 157 900 -720 Descending Cleveland Center